Wetterdaten: Woche 21.04.14 - 27.04.14 (KW17)
Datum Zeit Temperatur Luftfeuchte Luftdruck Niederschlag Windrichtung Sonnenschein Solar Wind
21.04.2014 00:00 7,1 C 91 % 1002,9 hPa 0,0 l/m O 0,00 h 0 W/m 4,4 km/h (1 Bft)
21.04.2014 01:00 7,1 C 91 % 1002,7 hPa 0,0 l/m O-NO 0,00 h 0 W/m 4,3 km/h (1 Bft)
21.04.2014 02:00 6,8 C 91 % 1002,3 hPa 0,0 l/m O-NO 0,00 h 0 W/m 4,4 km/h (1 Bft)
21.04.2014 03:00 5,9 C 93 % 1002,0 hPa 0,0 l/m O-NO 0,00 h 0 W/m 4,9 km/h (1 Bft)
21.04.2014 04:00 5,7 C 94 % 1002,0 hPa 0,0 l/m NO 0,00 h 0 W/m 3,9 km/h (1 Bft)
21.04.2014 05:00 6,0 C 93 % 1001,8 hPa 0,0 l/m N 0,00 h 0 W/m 1,9 km/h (1 Bft)
21.04.2014 06:00 5,8 C 93 % 1001,8 hPa 0,0 l/m N 0,00 h 12 W/m 0,7 km/h (0 Bft)
21.04.2014 07:00 5,9 C 94 % 1001,9 hPa 0,0 l/m N 0,00 h 41 W/m 0,8 km/h (0 Bft)
21.04.2014 08:00 7,1 C 91 % 1002,0 hPa 0,0 l/m N 0,00 h 97 W/m 0,8 km/h (0 Bft)
21.04.2014 09:00 8,3 C 88 % 1002,0 hPa 0,0 l/m NO 0,00 h 93 W/m 3,1 km/h (1 Bft)
21.04.2014 10:00 9,2 C 89 % 1002,2 hPa 0,0 l/m S 0,00 h 163 W/m 6,0 km/h (2 Bft)
21.04.2014 11:00 10,5 C 87 % 1002,2 hPa 0,0 l/m S-SW 0,00 h 248 W/m 11,0 km/h (2 Bft)
21.04.2014 12:00 11,7 C 85 % 1002,2 hPa 0,0 l/m S 0,00 h 306 W/m 9,8 km/h (2 Bft)
21.04.2014 13:00 13,3 C 80 % 1002,0 hPa 0,0 l/m SW 0,00 h 344 W/m 12,9 km/h (3 Bft)
21.04.2014 14:00 14,8 C 71 % 1001,8 hPa 0,0 l/m SW 0,58 h 522 W/m 13,0 km/h (3 Bft)
21.04.2014 15:00 15,5 C 64 % 1001,8 hPa 0,0 l/m W-NW 0,58 h 501 W/m 12,5 km/h (3 Bft)
21.04.2014 16:00 15,4 C 63 % 1001,9 hPa 0,0 l/m W-NW 0,08 h 211 W/m 13,2 km/h (3 Bft)
21.04.2014 17:00 14,8 C 65 % 1002,1 hPa 0,0 l/m W-NW 0,25 h 240 W/m 11,0 km/h (2 Bft)
21.04.2014 18:00 14,6 C 70 % 1002,4 hPa 0,0 l/m NW 0,33 h 152 W/m 8,4 km/h (2 Bft)
21.04.2014 19:00 13,1 C 78 % 1002,5 hPa 0,0 l/m NW 0,08 h 43 W/m 2,9 km/h (1 Bft)
21.04.2014 20:00 12,3 C 82 % 1003,3 hPa 0,0 l/m N 0,00 h 6 W/m 1,9 km/h (1 Bft)
21.04.2014 21:00 11,7 C 85 % 1004,3 hPa 0,0 l/m N 0,00 h 0 W/m 1,2 km/h (1 Bft)
21.04.2014 22:00 10,8 C 87 % 1004,9 hPa 0,0 l/m N 0,00 h 0 W/m 1,5 km/h (1 Bft)
21.04.2014 23:00 10,1 C 91 % 1005,4 hPa 0,0 l/m N 0,00 h 0 W/m 0,0 km/h (0 Bft)
22.04.2014 00:00 9,6 C 92 % 1005,8 hPa 0,0 l/m N 0,00 h 0 W/m 0,0 km/h (0 Bft)
22.04.2014 01:00 9,3 C 93 % 1006,2 hPa 0,0 l/m N 0,00 h 0 W/m 0,1 km/h (0 Bft)
22.04.2014 02:00 8,5 C 94 % 1006,4 hPa 0,0 l/m N 0,00 h 0 W/m 0,0 km/h (0 Bft)
22.04.2014 03:00 7,3 C 96 % 1006,7 hPa 0,0 l/m N 0,00 h 0 W/m 0,0 km/h (0 Bft)
22.04.2014 04:00 6,6 C 96 % 1007,1 hPa 0,0 l/m N 0,00 h 0 W/m 0,3 km/h (0 Bft)
22.04.2014 05:00 6,6 C 97 % 1007,5 hPa 0,0 l/m N 0,00 h 0 W/m 0,0 km/h (0 Bft)
22.04.2014 06:00 6,3 C 97 % 1007,8 hPa 0,0 l/m N 0,00 h 11 W/m 0,3 km/h (0 Bft)
22.04.2014 07:00 7,3 C 98 % 1008,5 hPa 0,0 l/m N 0,00 h 45 W/m 0,0 km/h (0 Bft)
22.04.2014 08:00 8,9 C 96 % 1009,2 hPa 0,0 l/m N 0,00 h 94 W/m 0,0 km/h (0 Bft)
22.04.2014 09:00 10,4 C 92 % 1009,8 hPa 0,0 l/m NW 0,00 h 149 W/m 1,5 km/h (1 Bft)
22.04.2014 10:00 12,4 C 84 % 1010,3 hPa 0,0 l/m W-SW 0,00 h 257 W/m 5,7 km/h (1 Bft)
22.04.2014 11:00 14,1 C 74 % 1010,5 hPa 0,0 l/m W-SW 0,17 h 374 W/m 9,0 km/h (2 Bft)
22.04.2014 12:00 16,1 C 62 % 1010,5 hPa 0,0 l/m W-SW 0,83 h 778 W/m 13,3 km/h (3 Bft)
22.04.2014 13:00 16,9 C 55 % 1010,4 hPa 0,0 l/m W-SW 0,50 h 465 W/m 13,4 km/h (3 Bft)
22.04.2014 14:00 17,4 C 53 % 1010,6 hPa 0,0 l/m W-SW 0,67 h 496 W/m 12,1 km/h (2 Bft)
22.04.2014 15:00 17,7 C 55 % 1010,5 hPa 0,0 l/m N-NW 0,42 h 397 W/m 10,5 km/h (2 Bft)
22.04.2014 16:00 16,8 C 58 % 1010,8 hPa 0,0 l/m N-NW 0,42 h 346 W/m 8,6 km/h (2 Bft)
22.04.2014 17:00 18,3 C 51 % 1011,0 hPa 0,0 l/m N 0,67 h 380 W/m 8,1 km/h (2 Bft)
22.04.2014 18:00 17,0 C 54 % 1011,3 hPa 0,0 l/m N-NO 0,33 h 145 W/m 3,7 km/h (1 Bft)
22.04.2014 19:00 16,5 C 60 % 1011,6 hPa 0,0 l/m NO 0,33 h 61 W/m 3,2 km/h (1 Bft)
22.04.2014 20:00 12,7 C 75 % 1012,3 hPa 0,0 l/m N 0,00 h 7 W/m 0,1 km/h (0 Bft)
22.04.2014 21:00 11,0 C 81 % 1013,1 hPa 0,0 l/m N 0,00 h 0 W/m 0,0 km/h (0 Bft)
22.04.2014 22:00 10,5 C 84 % 1013,5 hPa 0,0 l/m N 0,00 h 0 W/m 0,0 km/h (0 Bft)
22.04.2014 23:00 9,4 C 88 % 1013,9 hPa 0,0 l/m N 0,00 h 0 W/m 0,1 km/h (0 Bft)
23.04.2014 00:00 8,6 C 91 % 1014,4 hPa 0,0 l/m N 0,00 h 0 W/m 2,0 km/h (1 Bft)
23.04.2014 01:00 8,0 C 91 % 1014,9 hPa 0,0 l/m NO 0,00 h 0 W/m 1,3 km/h (1 Bft)
23.04.2014 02:00 8,0 C 91 % 1015,1 hPa 0,0 l/m N-NO 0,00 h 0 W/m 3,9 km/h (1 Bft)
23.04.2014 03:00 6,6 C 92 % 1015,4 hPa 0,0 l/m N 0,00 h 0 W/m 0,5 km/h (0 Bft)
23.04.2014 04:00 5,7 C 95 % 1015,8 hPa 0,0 l/m N 0,00 h 0 W/m 0,0 km/h (0 Bft)
23.04.2014 05:00 5,4 C 95 % 1016,1 hPa 0,0 l/m N 0,00 h 0 W/m 0,3 km/h (0 Bft)
23.04.2014 06:00 4,6 C 96 % 1016,4 hPa 0,0 l/m N 0,00 h 13 W/m 0,4 km/h (0 Bft)
23.04.2014 07:00 5,6 C 95 % 1016,8 hPa 0,0 l/m N 0,25 h 92 W/m 0,8 km/h (0 Bft)
23.04.2014 08:00 8,8 C 89 % 1017,2 hPa 0,0 l/m N 1,00 h 271 W/m 0,0 km/h (0 Bft)
23.04.2014 09:00 12,1 C 80 % 1017,3 hPa 0,0 l/m N-NO 1,00 h 442 W/m 1,9 km/h (1 Bft)
23.04.2014 10:00 15,1 C 69 % 1017,4 hPa 0,0 l/m NO 1,00 h 567 W/m 4,8 km/h (1 Bft)
23.04.2014 11:00 17,1 C 60 % 1017,3 hPa 0,0 l/m O-NO 1,00 h 695 W/m 11,1 km/h (2 Bft)
23.04.2014 12:00 18,5 C 54 % 1016,8 hPa 0,0 l/m O 0,67 h 604 W/m 14,8 km/h (3 Bft)
23.04.2014 13:00 19,9 C 46 % 1016,3 hPa 0,0 l/m O-SO 1,00 h 843 W/m 18,4 km/h (3 Bft)
23.04.2014 14:00 20,6 C 46 % 1015,9 hPa 0,0 l/m O-SO 0,67 h 629 W/m 16,8 km/h (3 Bft)
23.04.2014 15:00 19,6 C 45 % 1015,3 hPa 0,0 l/m O-NO 0,25 h 354 W/m 14,8 km/h (3 Bft)
23.04.2014 16:00 20,2 C 44 % 1014,8 hPa 0,0 l/m O-NO 0,58 h 416 W/m 15,0 km/h (3 Bft)
23.04.2014 17:00 20,5 C 43 % 1014,5 hPa 0,0 l/m O 0,92 h 462 W/m 16,4 km/h (3 Bft)
23.04.2014 18:00 19,8 C 47 % 1014,3 hPa 0,0 l/m O-NO 1,00 h 282 W/m 16,6 km/h (3 Bft)
23.04.2014 19:00 18,4 C 51 % 1014,6 hPa 0,0 l/m NO 0,42 h 69 W/m 11,9 km/h (2 Bft)
23.04.2014 20:00 16,4 C 59 % 1015,3 hPa 0,0 l/m NO 0,00 h 9 W/m 8,0 km/h (2 Bft)
23.04.2014 21:00 13,7 C 69 % 1016,0 hPa 0,0 l/m N 0,00 h 0 W/m 3,9 km/h (1 Bft)
23.04.2014 22:00 12,3 C 73 % 1016,2 hPa 0,0 l/m N 0,00 h 0 W/m 3,6 km/h (1 Bft)
23.04.2014 23:00 11,3 C 75 % 1016,3 hPa 0,0 l/m NO 0,00 h 0 W/m 2,8 km/h (1 Bft)
24.04.2014 00:00 10,4 C 78 % 1016,3 hPa 0,0 l/m NO 0,00 h 0 W/m 1,2 km/h (1 Bft)
24.04.2014 01:00 9,7 C 80 % 1016,2 hPa 0,0 l/m NO 0,00 h 0 W/m 2,3 km/h (1 Bft)
24.04.2014 02:00 9,1 C 82 % 1015,9 hPa 0,0 l/m NO 0,00 h 0 W/m 3,3 km/h (1 Bft)
24.04.2014 03:00 9,5 C 80 % 1016,0 hPa 0,0 l/m NO 0,00 h 0 W/m 6,7 km/h (2 Bft)
24.04.2014 04:00 8,0 C 85 % 1016,1 hPa 0,0 l/m NO 0,00 h 0 W/m 1,3 km/h (1 Bft)
24.04.2014 05:00 6,6 C 90 % 1016,1 hPa 0,0 l/m N 0,00 h 0 W/m 0,0 km/h (0 Bft)
24.04.2014 06:00 5,7 C 92 % 1016,3 hPa 0,0 l/m N 0,00 h 14 W/m 0,0 km/h (0 Bft)
24.04.2014 07:00 7,2 C 90 % 1016,5 hPa 0,0 l/m N 0,17 h 90 W/m 0,0 km/h (0 Bft)
24.04.2014 08:00 10,4 C 81 % 1016,6 hPa 0,0 l/m N 1,00 h 258 W/m 0,0 km/h (0 Bft)
24.04.2014 09:00 13,1 C 74 % 1016,6 hPa 0,0 l/m N 1,00 h 427 W/m 0,0 km/h (0 Bft)
24.04.2014 10:00 15,0 C 68 % 1016,5 hPa 0,0 l/m O 1,00 h 585 W/m 5,7 km/h (1 Bft)
24.04.2014 11:00 17,1 C 62 % 1015,8 hPa 0,0 l/m SO 1,00 h 707 W/m 6,8 km/h (2 Bft)
24.04.2014 12:00 19,2 C 54 % 1015,0 hPa 0,0 l/m O 0,67 h 599 W/m 14,4 km/h (3 Bft)
24.04.2014 13:00 20,5 C 45 % 1014,4 hPa 0,0 l/m O-NO 0,92 h 802 W/m 19,2 km/h (3 Bft)
24.04.2014 14:00 21,1 C 43 % 1013,8 hPa 0,0 l/m O-SO 0,75 h 647 W/m 17,3 km/h (3 Bft)
24.04.2014 15:00 22,0 C 39 % 1013,0 hPa 0,0 l/m O-SO 0,92 h 695 W/m 21,3 km/h (4 Bft)
24.04.2014 16:00 21,8 C 37 % 1012,1 hPa 0,0 l/m O-NO 0,92 h 615 W/m 18,8 km/h (3 Bft)
24.04.2014 17:00 21,7 C 37 % 1011,5 hPa 0,0 l/m O-SO 1,00 h 462 W/m 19,2 km/h (3 Bft)
24.04.2014 18:00 20,9 C 40 % 1011,2 hPa 0,0 l/m O 1,00 h 284 W/m 18,6 km/h (3 Bft)
24.04.2014 19:00 19,4 C 45 % 1011,0 hPa 0,0 l/m O 0,42 h 69 W/m 14,9 km/h (3 Bft)
24.04.2014 20:00 17,4 C 48 % 1011,1 hPa 0,0 l/m O 0,00 h 8 W/m 9,4 km/h (2 Bft)
24.04.2014 21:00 15,8 C 55 % 1011,1 hPa 0,0 l/m O-NO 0,00 h 0 W/m 6,7 km/h (2 Bft)
24.04.2014 22:00 14,8 C 59 % 1010,8 hPa 0,0 l/m O-NO 0,00 h 0 W/m 6,7 km/h (2 Bft)
24.04.2014 23:00 12,9 C 66 % 1010,5 hPa 0,0 l/m O-NO 0,00 h 0 W/m 3,1 km/h (1 Bft)
25.04.2014 00:00 11,1 C 74 % 1010,0 hPa 0,0 l/m O-NO 0,00 h 0 W/m 2,8 km/h (1 Bft)
25.04.2014 01:00 10,6 C 75 % 1009,4 hPa 0,0 l/m O-NO 0,00 h 0 W/m 4,9 km/h (1 Bft)
25.04.2014 02:00 10,3 C 76 % 1008,9 hPa 0,0 l/m NO 0,00 h 0 W/m 5,5 km/h (1 Bft)
25.04.2014 03:00 9,5 C 80 % 1008,6 hPa 0,0 l/m NO 0,00 h 0 W/m 4,5 km/h (1 Bft)
25.04.2014 04:00 8,7 C 83 % 1008,2 hPa 0,0 l/m N-NO 0,00 h 0 W/m 6,3 km/h (2 Bft)
25.04.2014 05:00 8,1 C 85 % 1008,0 hPa 0,0 l/m N-NO 0,00 h 0 W/m 3,9 km/h (1 Bft)
25.04.2014 06:00 7,5 C 89 % 1007,8 hPa 0,0 l/m N-NO 0,17 h 21 W/m 3,7 km/h (1 Bft)
25.04.2014 07:00 8,7 C 87 % 1007,9 hPa 0,0 l/m N-NO 0,08 h 87 W/m 4,3 km/h (1 Bft)
25.04.2014 08:00 10,9 C 81 % 1007,8 hPa 0,0 l/m NO 0,92 h 281 W/m 8,7 km/h (2 Bft)
25.04.2014 09:00 12,8 C 75 % 1007,9 hPa 0,0 l/m NO 0,83 h 384 W/m 12,0 km/h (2 Bft)
25.04.2014 10:00 15,2 C 68 % 1007,7 hPa 0,0 l/m NO 1,00 h 598 W/m 11,3 km/h (2 Bft)
25.04.2014 11:00 17,7 C 60 % 1007,5 hPa 0,0 l/m NO 1,00 h 694 W/m 10,5 km/h (2 Bft)
25.04.2014 12:00 19,7 C 52 % 1007,1 hPa 0,0 l/m NO 1,00 h 741 W/m 13,0 km/h (3 Bft)
25.04.2014 13:00 20,9 C 46 % 1006,9 hPa 0,0 l/m O 1,00 h 748 W/m 11,4 km/h (2 Bft)
25.04.2014 14:00 21,8 C 42 % 1006,7 hPa 0,0 l/m O-NO 1,00 h 779 W/m 8,6 km/h (2 Bft)
25.04.2014 15:00 22,7 C 39 % 1006,1 hPa 0,0 l/m O-SO 0,75 h 569 W/m 12,6 km/h (3 Bft)
25.04.2014 16:00 21,7 C 42 % 1005,8 hPa 0,0 l/m O-NO 0,17 h 246 W/m 11,3 km/h (2 Bft)
25.04.2014 17:00 21,6 C 43 % 1005,9 hPa 0,0 l/m O-SO 0,00 h 186 W/m 10,6 km/h (2 Bft)
25.04.2014 18:00 20,9 C 46 % 1005,9 hPa 0,0 l/m O 0,00 h 80 W/m 11,0 km/h (2 Bft)
25.04.2014 19:00 18,4 C 54 % 1006,5 hPa 0,0 l/m S-SO 0,00 h 10 W/m 5,3 km/h (1 Bft)
25.04.2014 20:00 16,8 C 60 % 1007,2 hPa 0,0 l/m W-SW 0,00 h 5 W/m 14,1 km/h (3 Bft)
25.04.2014 21:00 15,5 C 69 % 1008,2 hPa 0,2 l/m W-NW 0,00 h 0 W/m 9,1 km/h (2 Bft)
25.04.2014 22:00 13,3 C 86 % 1009,1 hPa 1,6 l/m W 0,00 h 0 W/m 7,4 km/h (2 Bft)
25.04.2014 23:00 12,4 C 92 % 1009,8 hPa 0,6 l/m SO 0,00 h 0 W/m 6,4 km/h (2 Bft)
26.04.2014 00:00 11,8 C 94 % 1009,9 hPa 0,2 l/m W 0,00 h 0 W/m 10,6 km/h (2 Bft)
26.04.2014 01:00 11,6 C 94 % 1009,6 hPa 0,0 l/m W 0,00 h 0 W/m 16,6 km/h (3 Bft)
26.04.2014 02:00 11,3 C 94 % 1010,1 hPa 0,0 l/m W 0,00 h 0 W/m 3,9 km/h (1 Bft)
26.04.2014 03:00 10,8 C 95 % 1010,1 hPa 0,0 l/m W-SW 0,00 h 0 W/m 8,8 km/h (2 Bft)
26.04.2014 04:00 10,4 C 96 % 1010,1 hPa 0,0 l/m W-SW 0,00 h 0 W/m 5,5 km/h (1 Bft)
26.04.2014 05:00 10,6 C 95 % 1010,0 hPa 0,0 l/m W-SW 0,00 h 0 W/m 4,8 km/h (1 Bft)
26.04.2014 06:00 10,8 C 94 % 1010,2 hPa 0,0 l/m N 0,00 h 8 W/m 1,1 km/h (0 Bft)
26.04.2014 07:00 11,0 C 95 % 1010,4 hPa 0,0 l/m N 0,00 h 25 W/m 2,9 km/h (1 Bft)
26.04.2014 08:00 11,5 C 94 % 1010,3 hPa 0,0 l/m W-SW 0,00 h 63 W/m 2,5 km/h (1 Bft)
26.04.2014 09:00 12,3 C 90 % 1010,0 hPa 0,0 l/m N 0,00 h 159 W/m 2,1 km/h (1 Bft)
26.04.2014 10:00 13,1 C 85 % 1010,0 hPa 0,0 l/m N 0,00 h 157 W/m 1,9 km/h (1 Bft)
26.04.2014 11:00 14,1 C 82 % 1009,7 hPa 0,0 l/m SW 0,00 h 174 W/m 5,1 km/h (1 Bft)
26.04.2014 12:00 15,3 C 76 % 1009,1 hPa 0,0 l/m SO 0,08 h 309 W/m 7,9 km/h (2 Bft)
26.04.2014 13:00 16,9 C 68 % 1008,3 hPa 0,0 l/m N-NO 0,75 h 725 W/m 8,3 km/h (2 Bft)
26.04.2014 14:00 18,9 C 60 % 1007,5 hPa 0,0 l/m N-NO 1,00 h 810 W/m 8,6 km/h (2 Bft)
26.04.2014 15:00 19,3 C 56 % 1006,5 hPa 0,0 l/m O-NO 0,67 h 625 W/m 7,5 km/h (2 Bft)
26.04.2014 16:00 18,8 C 57 % 1005,8 hPa 0,0 l/m N-NO 0,17 h 299 W/m 5,2 km/h (1 Bft)
26.04.2014 17:00 18,5 C 58 % 1005,3 hPa 0,0 l/m N 0,17 h 174 W/m 1,9 km/h (1 Bft)
26.04.2014 18:00 19,2 C 56 % 1004,8 hPa 0,0 l/m N-NO 0,92 h 249 W/m 2,8 km/h (1 Bft)
26.04.2014 19:00 17,8 C 63 % 1004,5 hPa 0,0 l/m N 0,42 h 63 W/m 1,9 km/h (1 Bft)
26.04.2014 20:00 14,7 C 76 % 1004,5 hPa 0,0 l/m N 0,00 h 10 W/m 2,0 km/h (1 Bft)
26.04.2014 21:00 14,2 C 76 % 1004,5 hPa 0,0 l/m N 0,00 h 0 W/m 5,7 km/h (1 Bft)
26.04.2014 22:00 14,0 C 78 % 1004,4 hPa 0,0 l/m N 0,00 h 0 W/m 3,2 km/h (1 Bft)
26.04.2014 23:00 13,1 C 84 % 1004,6 hPa 7,2 l/m S-SO 0,00 h 0 W/m 5,8 km/h (1 Bft)
27.04.2014 00:00 12,1 C 93 % 1004,4 hPa 0,4 l/m S-SO 0,00 h 0 W/m 2,5 km/h (1 Bft)
27.04.2014 01:00 11,7 C 95 % 1004,0 hPa 0,2 l/m SW 0,00 h 0 W/m 8,7 km/h (2 Bft)
27.04.2014 02:00 11,3 C 95 % 1003,8 hPa 0,0 l/m W-NW 0,00 h 0 W/m 15,8 km/h (3 Bft)
27.04.2014 03:00 10,6 C 93 % 1004,0 hPa 0,0 l/m W-NW 0,00 h 0 W/m 10,5 km/h (2 Bft)
27.04.2014 04:00 10,4 C 94 % 1004,4 hPa 1,2 l/m W-SW 0,00 h 0 W/m 11,0 km/h (2 Bft)
27.04.2014 05:00 9,6 C 95 % 1004,7 hPa 2,8 l/m W 0,00 h 0 W/m 19,3 km/h (3 Bft)
27.04.2014 06:00 8,3 C 95 % 1005,2 hPa 0,4 l/m W-SW 0,00 h 7 W/m 16,5 km/h (3 Bft)
27.04.2014 07:00 7,9 C 96 % 1005,8 hPa 0,6 l/m W-SW 0,00 h 27 W/m 14,5 km/h (3 Bft)
27.04.2014 08:00 7,9 C 96 % 1006,1 hPa 1,0 l/m W-SW 0,00 h 52 W/m 13,4 km/h (3 Bft)
27.04.2014 09:00 7,8 C 96 % 1006,6 hPa 1,2 l/m W-SW 0,00 h 66 W/m 14,1 km/h (3 Bft)
27.04.2014 10:00 8,1 C 96 % 1006,8 hPa 0,4 l/m W-SW 0,00 h 111 W/m 12,8 km/h (3 Bft)
27.04.2014 11:00 8,6 C 95 % 1007,1 hPa 0,4 l/m W-SW 0,00 h 145 W/m 14,0 km/h (3 Bft)
27.04.2014 12:00 8,8 C 95 % 1007,1 hPa 0,4 l/m W-SW 0,00 h 167 W/m 11,8 km/h (2 Bft)
27.04.2014 13:00 9,5 C 94 % 1006,9 hPa 0,0 l/m W-SW 0,00 h 202 W/m 8,6 km/h (2 Bft)
27.04.2014 14:00 9,6 C 93 % 1006,6 hPa 0,2 l/m W-SW 0,00 h 170 W/m 10,1 km/h (2 Bft)
27.04.2014 15:00 9,9 C 94 % 1006,4 hPa 0,2 l/m SW 0,00 h 141 W/m 8,3 km/h (2 Bft)
27.04.2014 16:00 10,2 C 93 % 1006,2 hPa 0,0 l/m SW 0,00 h 119 W/m 7,5 km/h (2 Bft)
27.04.2014 17:00 10,0 C 94 % 1006,3 hPa 0,0 l/m S-SW 0,00 h 76 W/m 10,5 km/h (2 Bft)
27.04.2014 18:00 9,3 C 95 % 1006,6 hPa 5,2 l/m SW 0,00 h 31 W/m 9,1 km/h (2 Bft)
27.04.2014 19:00 8,5 C 97 % 1007,1 hPa 1,6 l/m N 0,00 h 10 W/m 1,9 km/h (1 Bft)
27.04.2014 20:00 8,3 C 97 % 1007,8 hPa 1,8 l/m W-NW 0,00 h 0 W/m 3,5 km/h (1 Bft)
27.04.2014 21:00 8,1 C 97 % 1008,2 hPa 0,2 l/m W-NW 0,00 h 0 W/m 3,6 km/h (1 Bft)
27.04.2014 22:00 8,1 C 97 % 1008,4 hPa 0,0 l/m N 0,00 h 0 W/m 2,8 km/h (1 Bft)
27.04.2014 23:00 8,3 C 98 % 1008,6 hPa 0,2 l/m SW 0,00 h 0 W/m 5,5 km/h (1 Bft)
Min-Datum _ 23.04.14 24.04.14 21.04.14 - - - - 21.04.14
_ Min-Zeit 06:35 15:20 15:55 - - - - 05:05
Minimum _ 4,3 C 35 % 1001,6 hPa - - - - 0,0 km/h (0 Bft)
Max-Datum _ 25.04.14 27.04.14 23.04.14 26.04.14 - 21.04.14 22.04.14 24.04.14
_ Max-Zeit 15:25 05:55 10:45 23:40 - 14:25 13:10 15:10
Maximum _ 23,3 C 100 % 1017,5 hPa 7,2 l/m - 0,08 h 997 W/m 29,0 km/h
O (5 Bft)
Durchschnitt _ 12,6 C 77 % 1009,2 hPa #28,2 l/m W-SW #38:50 h 285 W/m 6,9 km/h (2 Bft)